Time;durP1;ratioP1;P1;durP2;ratioP2;P2;SDS_P1;SDS_P2;PMS_P1;PMS_P2;Temp;Humidity;BMP_temperature;BMP_pressure;BME280_temperature;BME280_humidity;BME280_pressure;Samples;Min_cycle;Max_cycle;Signal;HPM_P1;HPM_P2
2022/05/02 00:03:44;;;;;;;8.93;6.63;;;;;;;10.26;57.24;100208.81;10334958;28;20629;-80
2022/05/02 00:08:46;;;;;;;11.38;6.28;;;;;;;10.17;57.55;100211.09;10333925;28;20058;-80
2022/05/02 00:13:47;;;;;;;11.95;6.00;;;;;;;10.14;57.59;100206.00;10334377;28;20091;-81
2022/05/02 00:18:49;;;;;;;9.55;6.22;;;;;;;10.13;57.58;100206.94;10332686;28;20085;-81
2022/05/02 00:23:51;;;;;;;8.10;5.95;;;;;;;10.07;57.58;100204.66;10330685;28;20046;-80
2022/05/02 00:28:53;;;;;;;11.13;6.40;;;;;;;9.92;57.94;100197.63;10333559;28;20049;-80
2022/05/02 00:33:54;;;;;;;11.60;6.75;;;;;;;9.78;58.44;100197.50;10331770;28;20515;-81
2022/05/02 00:38:56;;;;;;;12.45;6.68;;;;;;;9.68;58.53;100194.53;10332379;28;20136;-81
2022/05/02 00:43:58;;;;;;;9.18;5.82;;;;;;;9.65;58.69;100192.03;10336005;28;20057;-80
2022/05/02 00:49:00;;;;;;;8.48;6.30;;;;;;;9.61;58.65;100191.34;10332488;28;20053;-80
2022/05/02 00:54:02;;;;;;;9.73;6.60;;;;;;;9.47;58.85;100186.00;10331240;28;20042;-80
2022/05/02 00:59:05;;;;;;;12.05;6.57;;;;;;;9.24;59.59;100181.09;10324694;28;20121;-80
2022/05/02 01:04:07;;;;;;;14.10;6.70;;;;;;;9.15;59.77;100180.72;10328282;28;20144;-80
2022/05/02 01:09:09;;;;;;;9.77;6.50;;;;;;;9.16;59.57;100188.47;10332163;28;20483;-80
2022/05/02 01:14:11;;;;;;;10.05;6.22;;;;;;;9.23;59.58;100187.25;10329507;28;20050;-80
2022/05/02 01:19:12;;;;;;;10.15;5.72;;;;;;;9.24;59.54;100181.09;10330445;28;20107;-80
2022/05/02 01:24:14;;;;;;;9.75;6.03;;;;;;;9.22;59.34;100180.31;10332607;28;20512;-80
2022/05/02 01:29:16;;;;;;;9.80;5.80;;;;;;;9.19;59.41;100180.50;10341079;28;20050;-80
2022/05/02 01:34:17;;;;;;;10.25;6.70;;;;;;;9.03;59.51;100181.34;10336811;28;20058;-80
2022/05/02 01:39:19;;;;;;;11.15;6.50;;;;;;;8.95;59.68;100175.66;10340728;28;20061;-80
2022/05/02 01:44:21;;;;;;;9.75;6.32;;;;;;;8.83;59.77;100180.53;10339523;28;20062;-80
2022/05/02 01:49:23;;;;;;;12.65;6.72;;;;;;;8.75;60.11;100171.41;10339170;28;20133;-80
2022/05/02 01:54:26;;;;;;;9.55;6.75;;;;;;;8.72;60.05;100172.41;10339005;28;20143;-81
2022/05/02 01:59:27;;;;;;;10.20;6.07;;;;;;;8.71;60.14;100172.44;10338690;28;20652;-80
2022/05/02 02:09:50;;;;;;;11.10;6.68;;;;;;;8.65;60.15;100168.38;10342795;28;20119;-80
2022/05/02 02:14:52;;;;;;;10.57;6.30;;;;;;;8.62;60.24;100168.56;10344626;28;20050;-80
2022/05/02 02:19:53;;;;;;;9.07;6.40;;;;;;;8.59;60.27;100170.44;10343336;28;20097;-80
2022/05/02 02:24:55;;;;;;;9.07;6.28;;;;;;;8.41;60.53;100166.94;10360636;28;20057;-80
2022/05/02 02:29:58;;;;;;;9.88;6.32;;;;;;;8.35;60.59;100169.00;10343626;28;20085;-80
2022/05/02 02:35:00;;;;;;;10.73;6.18;;;;;;;8.27;60.72;100161.53;10342012;28;20094;-80
2022/05/02 02:40:03;;;;;;;10.02;6.93;;;;;;;8.26;60.64;100164.22;10342220;28;20053;-80
2022/05/02 02:45:05;;;;;;;10.10;6.35;;;;;;;8.18;60.73;100158.53;10343061;28;20054;-80
2022/05/02 02:50:07;;;;;;;7.88;5.72;;;;;;;8.11;60.71;100159.72;10342998;28;20061;-80
2022/05/02 02:55:09;;;;;;;8.77;6.38;;;;;;;8.01;60.93;100154.91;10341429;28;20048;-80
2022/05/02 03:00:11;;;;;;;9.75;6.47;;;;;;;7.96;61.00;100151.66;10340721;28;20113;-80
2022/05/02 03:10:33;;;;;;;9.23;6.13;;;;;;;7.82;61.22;100140.16;10337152;28;20058;-80
2022/05/02 03:15:36;;;;;;;10.57;7.07;;;;;;;7.77;61.19;100142.97;10335088;28;20042;-80
2022/05/02 03:20:41;;;;;;;11.40;7.18;;;;;;;7.72;61.35;100131.94;10335494;28;20062;-80
2022/05/02 03:25:43;;;;;;;10.80;7.18;;;;;;;7.63;61.28;100132.34;10334952;28;20077;-80
2022/05/02 03:30:45;;;;;;;10.05;6.50;;;;;;;7.63;61.27;100129.72;10333291;28;20582;-80
2022/05/02 03:35:47;;;;;;;10.82;6.75;;;;;;;7.65;61.18;100130.50;10333857;28;20151;-80
2022/05/02 03:40:49;;;;;;;10.43;6.63;;;;;;;7.61;61.42;100136.75;10336391;28;20137;-80
2022/05/02 03:45:50;;;;;;;10.15;7.05;;;;;;;7.56;61.44;100130.94;10335634;28;20960;-80
2022/05/02 03:51:23;;;;;;;10.15;6.95;;;;;;;7.32;62.03;100129.41;10335177;28;20150;-80
2022/05/02 03:56:25;;;;;;;10.45;7.30;;;;;;;7.36;61.72;100128.38;10332219;28;20062;-80
2022/05/02 04:01:26;;;;;;;9.07;6.63;;;;;;;7.35;61.59;100129.25;10332997;28;20116;-80
2022/05/02 04:06:28;;;;;;;10.68;6.45;;;;;;;7.34;61.50;100134.53;10331645;28;20129;-80
2022/05/02 04:11:30;;;;;;;10.55;6.82;;;;;;;7.29;61.54;100137.34;10332639;28;20121;-80
2022/05/02 04:16:32;;;;;;;9.95;7.18;;;;;;;7.28;61.77;100138.25;10332720;28;20057;-80
2022/05/02 04:21:34;;;;;;;8.52;6.53;;;;;;;7.33;61.47;100136.28;10332514;28;20093;-80
2022/05/02 04:26:36;;;;;;;9.88;7.30;;;;;;;7.34;61.49;100130.19;10332708;28;20081;-80
2022/05/02 04:31:37;;;;;;;10.65;7.57;;;;;;;7.38;61.20;100142.16;10332381;28;20112;-80
2022/05/02 04:36:40;;;;;;;11.52;7.10;;;;;;;7.51;61.00;100142.47;10332716;28;20051;-80
2022/05/02 04:41:41;;;;;;;9.77;7.13;;;;;;;7.85;60.31;100137.44;10332618;28;20500;-80
2022/05/02 04:46:43;;;;;;;11.90;6.53;;;;;;;8.45;58.95;100133.75;10335343;28;20112;-80
2022/05/02 04:51:45;;;;;;;10.40;8.70;;;;;;;9.02;57.91;100133.53;10334048;28;20073;-80
2022/05/02 04:56:47;;;;;;;9.80;6.55;;;;;;;9.94;56.00;100135.69;10332447;28;20173;-80
2022/05/02 05:01:48;;;;;;;11.13;6.75;;;;;;;11.02;53.73;100128.66;10328590;28;20160;-80
2022/05/02 05:06:50;;;;;;;7.18;6.10;;;;;;;11.42;52.41;100129.81;10329383;28;20053;-80
2022/05/02 05:12:13;;;;;;;8.75;6.63;;;;;;;10.39;53.52;100135.78;10329793;28;20115;-80
2022/05/02 05:17:21;;;;;;;10.52;6.72;;;;;;;9.73;54.88;100139.47;10333438;28;20519;-80
2022/05/02 05:22:30;;;;;;;9.25;6.80;;;;;;;9.22;56.04;100138.56;10346149;28;20058;-81
2022/05/02 05:27:53;;;;;;;8.18;6.95;;;;;;;9.08;56.64;100135.81;10338603;28;20093;-80
2022/05/02 05:33:13;;;;;;;7.88;6.40;;;;;;;9.19;56.70;100138.75;10332298;28;20054;-80
2022/05/02 05:38:21;;;;;;;9.18;6.43;;;;;;;9.36;56.51;100140.50;10332002;28;20125;-80
2022/05/02 05:43:48;;;;;;;9.27;6.15;;;;;;;9.73;55.82;100139.47;10330662;28;20054;-80
2022/05/02 05:49:12;;;;;;;7.57;6.75;;;;;;;9.78;55.59;100142.66;10331417;28;20085;-80
2022/05/02 05:54:32;;;;;;;9.05;6.55;;;;;;;9.86;55.63;100143.94;10328074;28;20050;-81
2022/05/02 05:59:34;;;;;;;10.07;7.67;;;;;;;9.59;56.05;100137.53;10329806;28;20054;-80
2022/05/02 06:04:36;;;;;;;11.30;6.55;;;;;;;9.72;56.08;100142.97;10329226;28;20058;-81
2022/05/02 06:09:42;;;;;;;7.93;6.47;;;;;;;9.84;56.16;100139.72;10334184;28;20057;-80
2022/05/02 06:20:09;;;;;;;8.05;5.60;;;;;;;10.25;55.67;100138.31;10336340;28;20050;-80
2022/05/02 06:25:13;;;;;;;9.90;6.40;;;;;;;10.72;54.92;100141.75;10328547;28;20050;-80
2022/05/02 06:30:16;;;;;;;9.73;6.88;;;;;;;10.68;55.09;100129.78;10329723;28;20112;-80
2022/05/02 06:35:18;;;;;;;9.80;6.90;;;;;;;10.42;55.78;100139.06;10335359;28;20104;-80
2022/05/02 06:40:44;;;;;;;8.35;6.40;;;;;;;10.65;55.78;100124.69;10337797;28;20117;-81
2022/05/02 06:45:58;;;;;;;11.55;6.72;;;;;;;10.55;56.05;100131.38;10339339;28;20686;-80
2022/05/02 06:51:02;;;;;;;11.05;6.45;;;;;;;10.85;55.67;100126.16;10329386;28;20061;-80
2022/05/02 06:56:27;;;;;;;10.93;7.22;;;;;;;11.08;55.54;100117.88;10327352;28;20117;-80
2022/05/02 07:01:50;;;;;;;12.07;7.15;;;;;;;11.35;54.88;100129.31;10335003;28;20096;-79
2022/05/02 07:07:10;;;;;;;11.63;7.40;;;;;;;11.73;53.96;100119.97;10332171;28;20419;-80
2022/05/02 07:12:22;;;;;;;16.83;7.88;;;;;;;11.95;53.50;100116.88;10329496;28;20115;-80
2022/05/02 07:17:40;;;;;;;9.15;7.22;;;;;;;11.99;52.39;100118.34;10333099;28;20049;-80
2022/05/02 07:23:17;;;;;;;13.85;7.10;;;;;;;12.31;51.78;100119.84;10335501;28;20443;-80
2022/05/02 07:28:47;;;;;;;12.68;7.55;;;;;;;12.44;52.43;100128.59;10327647;28;20046;-80
2022/05/02 07:33:51;;;;;;;11.23;7.45;;;;;;;13.43;50.94;100125.50;10335140;28;20485;-80
2022/05/02 07:39:04;;;;;;;13.95;7.25;;;;;;;14.94;46.11;100120.66;10323150;28;20135;-79
2022/05/02 07:44:09;;;;;;;10.20;6.63;;;;;;;15.42;45.85;100105.59;10332799;28;20124;-79
2022/05/02 07:49:21;;;;;;;13.38;6.80;;;;;;;16.30;44.19;100101.25;10333125;28;20078;-80
2022/05/02 07:54:29;;;;;;;14.00;6.72;;;;;;;17.05;42.35;100097.63;10333510;28;20137;-80
2022/05/02 07:59:35;;;;;;;;;;;;;;;17.39;40.96;100099.13;10332209;28;20049;-80
2022/05/02 08:04:44;;;;;;;11.02;6.50;;;;;;;17.79;40.30;100093.91;10336154;28;19980;-81
2022/05/02 08:10:07;;;;;;;8.93;6.00;;;;;;;17.96;39.17;100095.06;10329079;28;20062;-81
2022/05/02 08:15:24;;;;;;;14.90;6.30;;;;;;;18.47;38.46;100080.72;10325095;28;20136;-81
2022/05/02 08:20:45;;;;;;;13.45;6.65;;;;;;;18.48;38.30;100079.72;10329990;28;20916;-81
2022/05/02 08:31:40;;;;;;;13.20;6.10;;;;;;;18.42;38.21;100076.81;10323449;28;20598;-80
2022/05/02 08:36:59;;;;;;;11.52;6.07;;;;;;;18.49;37.70;100069.97;10328227;28;20511;-81
2022/05/02 08:42:26;;;;;;;12.95;6.03;;;;;;;18.99;37.04;100057.41;10333430;28;20680;-81
2022/05/02 08:47:50;;;;;;;11.98;6.47;;;;;;;19.40;37.13;100057.88;10331070;28;20614;-81
2022/05/02 08:53:16;;;;;;;12.13;6.15;;;;;;;18.91;36.20;100063.41;10326886;28;20053;-81
2022/05/02 08:58:47;;;;;;;13.98;6.72;;;;;;;19.69;35.69;100057.78;10326399;28;20089;-80
2022/05/02 09:04:13;;;;;;;10.23;6.53;;;;;;;19.97;35.18;100053.38;10324585;28;20081;-81
2022/05/02 09:09:24;;;;;;;15.05;6.28;;;;;;;20.17;34.93;100049.59;10320581;28;20116;-80
2022/05/02 09:14:35;;;;;;;8.95;6.20;;;;;;;19.98;35.64;100049.72;10337859;28;20511;-80
2022/05/02 09:19:56;;;;;;;11.85;6.30;;;;;;;20.00;36.19;100045.94;10319384;28;20760;-80
2022/05/02 09:25:07;;;;;;;11.82;5.95;;;;;;;19.79;36.07;100045.31;10324768;28;20061;-81
2022/05/02 09:30:20;;;;;;;14.48;6.43;;;;;;;19.86;35.64;100035.81;10316377;28;20060;-80
2022/05/02 09:35:31;;;;;;;17.45;6.13;;;;;;;20.42;35.30;100027.59;10326503;28;20178;-81
2022/05/02 09:40:36;;;;;;;12.00;6.22;;;;;;;20.75;34.84;100016.28;10323504;28;20465;-81
2022/05/02 09:51:31;;;;;;;18.25;5.82;;;;;;;20.61;33.66;100011.53;10334179;28;20054;-81
2022/05/02 09:56:43;;;;;;;12.82;6.07;;;;;;;20.80;34.26;100011.38;10331504;28;20652;-80
2022/05/02 10:01:48;;;;;;;11.57;6.30;;;;;;;21.00;34.66;99998.69;10329970;28;20411;-80
2022/05/02 10:07:05;;;;;;;13.82;6.28;;;;;;;21.34;33.00;99998.75;10331161;28;20053;-81
2022/05/02 10:12:18;;;;;;;9.50;6.18;;;;;;;21.18;33.35;99993.31;10344904;28;20092;-80
2022/05/02 10:17:29;;;;;;;9.35;5.90;;;;;;;21.42;32.85;99986.31;10330901;28;20050;-81
2022/05/02 10:22:31;;;;;;;10.77;5.72;;;;;;;21.41;32.98;99979.34;10329619;28;20054;-81
2022/05/02 10:27:38;;;;;;;8.75;5.97;;;;;;;22.16;31.99;99981.09;10324497;28;20480;-81
2022/05/02 10:32:45;;;;;;;10.82;5.60;;;;;;;22.11;31.48;99975.41;10346697;28;20106;-81
2022/05/02 10:38:14;;;;;;;14.90;5.50;;;;;;;21.82;31.44;99964.38;10332635;28;20971;-81
2022/05/02 10:43:23;;;;;;;13.50;5.30;;;;;;;21.28;32.02;99965.59;10344895;28;20058;-81
2022/05/02 10:48:49;;;;;;;10.00;4.93;;;;;;;21.16;31.65;99958.06;10345132;28;20492;-81
2022/05/02 10:54:04;;;;;;;11.68;6.07;;;;;;;21.39;30.12;99951.22;10332340;28;20481;-80
2022/05/02 10:59:09;;;;;;;9.70;5.60;;;;;;;21.29;31.87;99945.16;10332479;28;20112;-80
2022/05/02 11:04:40;;;;;;;9.35;5.60;;;;;;;20.79;32.05;99940.56;10331164;28;20121;-80
2022/05/02 11:10:00;;;;;;;9.65;4.78;;;;;;;21.07;31.22;99936.75;10320444;28;20588;-80
2022/05/02 11:15:05;;;;;;;9.48;5.00;;;;;;;20.85;33.13;99939.94;10319550;28;20506;-80
2022/05/02 11:20:42;;;;;;;10.68;5.88;;;;;;;20.59;32.79;99938.25;10321115;28;20457;-80
2022/05/02 11:26:02;;;;;;;8.57;5.63;;;;;;;20.45;32.58;99936.13;10319903;28;20049;-80
2022/05/02 11:31:21;;;;;;;8.70;5.43;;;;;;;20.62;33.19;99928.16;10323853;28;20101;-80
2022/05/02 11:36:26;;;;;;;10.70;5.72;;;;;;;20.66;32.70;99913.56;10325918;28;20108;-80
2022/05/02 11:41:30;;;;;;;8.13;5.20;;;;;;;20.71;31.74;99916.59;10321972;28;20050;-80
2022/05/02 11:46:36;;;;;;;9.05;4.55;;;;;;;20.59;32.21;99893.94;10317627;28;20054;-80
2022/05/02 11:51:48;;;;;;;8.05;4.63;;;;;;;21.07;31.79;99896.84;10328898;28;20139;-80
2022/05/02 11:57:08;;;;;;;9.48;4.65;;;;;;;21.67;31.02;99899.44;10332693;28;20412;-80
2022/05/02 12:02:32;;;;;;;8.90;4.25;;;;;;;21.37;29.93;99900.00;10317033;28;20049;-79
2022/05/02 12:07:38;;;;;;;9.10;5.35;;;;;;;21.53;30.44;99895.56;10318930;28;20450;-80
2022/05/02 12:12:51;;;;;;;11.05;4.70;;;;;;;21.70;28.73;99893.78;10315200;28;20740;-80
2022/05/02 12:18:06;;;;;;;7.23;4.80;;;;;;;21.82;29.17;99881.81;10323574;28;20042;-80
2022/05/02 12:23:17;;;;;;;9.20;4.68;;;;;;;21.40;31.21;99881.88;10321455;28;20054;-80
2022/05/02 12:28:19;;;;;;;7.60;4.50;;;;;;;21.56;30.82;99875.75;10317950;28;20789;-80
2022/05/02 12:33:24;;;;;;;10.73;4.80;;;;;;;21.61;32.22;99876.13;10318747;28;20058;-80
2022/05/02 12:38:28;;;;;;;9.13;4.78;;;;;;;21.60;29.73;99877.09;10318429;28;20132;-80
2022/05/02 12:43:44;;;;;;;9.95;4.22;;;;;;;21.65;29.58;99859.66;10317662;28;20523;-80
2022/05/02 12:48:55;;;;;;;7.38;4.20;;;;;;;21.92;29.65;99861.19;10335452;28;20050;-79
2022/05/02 12:54:12;;;;;;;9.27;4.82;;;;;;;22.23;28.49;99864.06;10321858;28;20089;-80
2022/05/02 13:04:46;;;;;;;8.57;4.25;;;;;;;21.84;30.39;99847.88;10311820;28;20138;-80
2022/05/02 13:09:52;;;;;;;9.80;4.20;;;;;;;21.72;29.92;99843.88;10318567;28;20054;-80
2022/05/02 13:14:59;;;;;;;7.03;4.70;;;;;;;22.20;28.87;99840.41;10319445;28;20057;-80
2022/05/02 13:20:05;;;;;;;8.35;3.90;;;;;;;22.05;29.43;99832.25;10314947;28;20053;-80
2022/05/02 13:25:07;;;;;;;8.27;4.63;;;;;;;21.92;30.03;99835.38;10329903;28;20058;-81
2022/05/02 13:30:12;;;;;;;10.82;4.78;;;;;;;21.88;28.93;99828.72;10331864;28;20053;-82
2022/05/02 13:35:26;;;;;;;7.03;4.32;;;;;;;21.87;29.39;99818.25;10334313;28;20177;-82
2022/05/02 13:40:52;;;;;;;6.78;4.22;;;;;;;21.81;29.12;99816.25;10345465;28;20088;-81
2022/05/02 13:45:59;;;;;;;8.73;4.43;;;;;;;21.29;30.75;99820.16;10326124;28;20077;-82
2022/05/02 13:51:27;;;;;;;7.40;4.53;;;;;;;21.34;29.76;99809.88;10334033;28;20058;-82
2022/05/02 13:56:44;;;;;;;8.48;3.90;;;;;;;21.79;29.76;99812.91;10328573;28;20046;-82
2022/05/02 14:01:51;;;;;;;7.43;4.28;;;;;;;22.28;29.45;99801.28;10321617;28;20073;-82
2022/05/02 14:11:57;;;;;;;6.65;4.20;;;;;;;22.25;31.24;99803.44;10315843;28;20132;-82
2022/05/02 14:16:59;;;;;;;9.05;4.43;;;;;;;22.44;29.63;99800.41;10334965;28;20042;-82
2022/05/02 14:22:07;;;;;;;10.73;4.20;;;;;;;22.50;29.47;99787.22;10332012;28;20050;-82
2022/05/02 14:27:20;;;;;;;8.10;4.40;;;;;;;22.48;30.24;99789.22;10341950;28;20054;-82
2022/05/02 14:32:39;;;;;;;8.15;4.45;;;;;;;22.35;28.55;99794.25;10347890;28;20117;-82
2022/05/02 14:37:43;;;;;;;6.93;4.50;;;;;;;22.17;29.92;99785.63;10339177;28;20089;-82
2022/05/02 14:42:45;;;;;;;7.53;4.55;;;;;;;22.55;29.23;99782.22;10329899;28;20452;-81
2022/05/02 14:47:50;;;;;;;8.38;4.22;;;;;;;22.01;29.31;99787.44;10331232;28;20503;-81
2022/05/02 14:52:54;;;;;;;11.60;4.55;;;;;;;21.62;32.26;99779.31;10330686;28;20491;-82
2022/05/02 14:57:58;;;;;;;6.97;4.50;;;;;;;21.75;30.56;99782.31;10334323;28;20130;-82
2022/05/02 15:03:05;;;;;;;9.00;4.20;;;;;;;21.65;29.91;99769.16;10349375;28;20675;-83
2022/05/02 15:08:26;;;;;;;8.52;4.32;;;;;;;21.53;30.61;99769.66;10328161;28;20464;-81
2022/05/02 15:13:51;;;;;;;9.07;4.28;;;;;;;21.49;30.01;99771.00;10331010;28;20054;-81
2022/05/02 15:24:46;;;;;;;7.30;4.22;;;;;;;21.56;29.84;99750.69;10329007;28;20074;-82
2022/05/02 15:41:07;;;;;;;7.22;4.30;;;;;;;21.62;30.25;99742.06;10324160;28;20088;-82
2022/05/02 15:46:15;;;;;;;7.55;4.28;;;;;;;21.70;28.57;99748.19;10327760;28;20464;-81
2022/05/02 15:51:17;;;;;;;7.68;4.40;;;;;;;21.76;28.94;99734.22;10328700;28;20095;-82
2022/05/02 15:56:22;;;;;;;7.05;4.00;;;;;;;21.58;28.84;99738.03;10317114;28;20077;-81
2022/05/02 16:01:35;;;;;;;7.95;4.20;;;;;;;21.62;29.63;99739.41;10320862;28;20086;-82
2022/05/02 16:06:55;;;;;;;8.98;4.50;;;;;;;21.82;29.45;99732.72;10323336;28;20508;-82
2022/05/02 16:12:08;;;;;;;8.25;4.25;;;;;;;21.88;29.53;99735.53;10323206;28;20050;-82
2022/05/02 16:17:16;;;;;;;7.07;3.78;;;;;;;21.76;29.55;99723.56;10321983;28;20085;-82
2022/05/02 16:22:20;;;;;;;7.70;4.35;;;;;;;21.62;29.99;99726.09;10324764;28;20054;-82
2022/05/02 16:27:23;;;;;;;8.27;3.90;;;;;;;21.44;30.34;99728.06;10325112;28;20049;-82
2022/05/02 16:32:28;;;;;;;7.20;4.00;;;;;;;21.24;30.45;99724.03;10324157;28;20085;-82
2022/05/02 16:37:35;;;;;;;12.45;4.03;;;;;;;20.85;31.06;99713.16;10337066;28;20489;-82
2022/05/02 16:42:43;;;;;;;8.43;4.10;;;;;;;20.84;30.51;99720.31;10327401;28;20092;-82
2022/05/02 16:47:45;;;;;;;7.30;4.07;;;;;;;20.94;30.96;99722.81;10326653;28;20093;-82
2022/05/02 16:52:49;;;;;;;7.13;3.90;;;;;;;20.94;31.19;99717.50;10331241;28;20054;-82
2022/05/02 16:58:01;;;;;;;6.50;4.07;;;;;;;20.85;31.24;99710.50;10323257;28;20132;-82
2022/05/02 17:03:08;;;;;;;5.90;3.88;;;;;;;20.82;32.93;99711.66;10329391;28;20054;-82
2022/05/02 17:08:19;;;;;;;6.18;3.80;;;;;;;20.74;32.16;99708.97;10328034;28;20280;-82
2022/05/02 17:13:31;;;;;;;7.70;3.78;;;;;;;20.66;31.02;99711.59;10312555;28;20180;-82
2022/05/02 17:18:52;;;;;;;6.05;4.00;;;;;;;20.68;31.57;99714.91;10310938;28;20168;-82
2022/05/02 17:23:57;;;;;;;6.22;3.92;;;;;;;20.64;30.88;99724.22;10321464;28;20153;-82
2022/05/02 17:29:04;;;;;;;6.25;4.10;;;;;;;20.51;31.58;99721.16;10319422;28;20081;-82
2022/05/02 17:34:13;;;;;;;6.80;3.70;;;;;;;20.36;31.99;99719.25;10314782;28;20204;-81
2022/05/02 17:39:30;;;;;;;12.10;4.00;;;;;;;20.16;33.97;99719.50;10316635;28;20136;-81
2022/05/02 17:44:36;;;;;;;10.73;4.20;;;;;;;20.15;33.77;99730.28;10324414;28;20080;-83
2022/05/02 17:49:50;;;;;;;5.70;4.03;;;;;;;20.10;34.16;99729.91;10319512;28;20108;-81
2022/05/02 17:54:55;;;;;;;9.65;4.00;;;;;;;20.03;34.21;99728.88;10320659;28;20252;-81
2022/05/02 18:00:12;;;;;;;7.90;3.67;;;;;;;19.81;34.74;99734.63;10321328;28;20038;-82
2022/05/02 18:05:29;;;;;;;7.13;3.78;;;;;;;19.55;35.01;99739.09;10328619;28;20054;-81
2022/05/02 18:10:34;;;;;;;7.65;3.92;;;;;;;19.48;35.45;99742.34;10331396;28;20046;-82
2022/05/02 18:15:39;;;;;;;10.27;4.00;;;;;;;19.43;36.26;99743.78;10330827;28;20073;-81
2022/05/02 18:20:42;;;;;;;6.68;3.60;;;;;;;19.35;36.98;99744.56;10332019;28;20060;-82
2022/05/02 18:25:45;;;;;;;5.22;3.55;;;;;;;19.17;37.44;99756.16;10331199;28;20145;-82
2022/05/02 18:30:58;;;;;;;6.25;4.05;;;;;;;19.06;37.78;99754.53;10332425;28;20050;-81
2022/05/02 18:36:01;;;;;;;8.48;3.95;;;;;;;18.91;38.75;99760.47;10319426;28;20089;-81
2022/05/02 18:41:20;;;;;;;7.78;3.78;;;;;;;18.78;39.13;99758.16;10314940;28;20093;-83
2022/05/02 18:57:31;;;;;;;6.97;3.95;;;;;;;18.19;40.55;99762.97;10340133;28;20104;-84
2022/05/02 19:02:43;;;;;;;7.70;3.92;;;;;;;18.00;40.94;99769.16;10335384;28;20116;-84
2022/05/02 19:07:50;;;;;;;9.77;4.32;;;;;;;17.84;41.67;99777.69;10332779;28;20513;-85
2022/05/02 19:13:21;;;;;;;8.48;4.10;;;;;;;17.55;41.36;99779.50;10334748;28;20070;-84
2022/05/02 19:18:24;;;;;;;8.85;4.13;;;;;;;17.42;41.61;99786.91;10335539;28;20045;-84
2022/05/02 19:23:51;;;;;;;8.65;4.63;;;;;;;17.28;41.57;99791.72;10316259;28;20935;-84
2022/05/02 19:28:57;;;;;;;11.52;4.35;;;;;;;17.09;42.21;99797.81;10298125;28;20087;-83
2022/05/02 19:39:06;;;;;;;9.02;4.55;;;;;;;16.84;42.88;99801.75;10292533;28;20519;-83
2022/05/02 19:39:23;;;;;;;11.85;4.63;;;;;;;16.59;42.97;99798.75;10294197;28;20472;-83
2022/05/02 19:44:40;;;;;;;11.07;4.82;;;;;;;16.39;43.49;99807.50;10297592;28;20085;-83
2022/05/02 19:49:44;;;;;;;8.43;5.07;;;;;;;16.26;43.58;99807.75;10292125;28;20519;-84
2022/05/02 19:54:49;;;;;;;7.43;4.38;;;;;;;16.35;43.47;99816.66;10299042;28;20509;-83
2022/05/02 19:59:54;;;;;;;8.35;4.70;;;;;;;16.33;43.41;99813.31;10299340;28;20082;-83
2022/05/02 20:04:56;;;;;;;10.48;5.03;;;;;;;16.32;43.72;99823.06;10300719;28;20054;-83
2022/05/02 20:09:57;;;;;;;7.93;4.40;;;;;;;16.21;44.10;99821.31;10302526;28;20136;-83
2022/05/02 20:14:59;;;;;;;7.47;4.65;;;;;;;16.09;44.31;99827.63;10316451;28;20050;-83
2022/05/02 20:20:01;;;;;;;7.72;4.82;;;;;;;16.03;44.58;99817.59;10300319;28;20077;-83
2022/05/02 20:25:07;;;;;;;8.70;5.28;;;;;;;15.88;44.65;99826.78;10293638;28;20058;-83
2022/05/02 20:30:17;;;;;;;11.63;5.00;;;;;;;15.78;45.15;99827.66;10297249;28;20461;-83
2022/05/02 20:40:50;;;;;;;8.57;4.97;;;;;;;15.66;45.54;99826.88;10298478;28;20089;-83
2022/05/02 20:45:58;;;;;;;8.32;5.55;;;;;;;15.79;45.36;99832.84;10301929;28;20125;-83
2022/05/02 20:51:02;;;;;;;8.77;4.75;;;;;;;15.81;45.08;99837.97;10295015;28;20093;-83
2022/05/02 20:56:05;;;;;;;8.80;5.68;;;;;;;15.73;45.31;99840.41;10293638;28;20520;-83
2022/05/02 21:01:07;;;;;;;6.35;4.65;;;;;;;15.70;45.67;99843.28;10293323;28;20116;-83
2022/05/02 21:06:09;;;;;;;7.65;4.95;;;;;;;15.65;45.88;99845.47;10294552;28;20054;-83
2022/05/02 21:17:04;;;;;;;7.28;4.80;;;;;;;15.57;46.55;99850.53;10291116;28;20070;-83
2022/05/02 21:22:35;;;;;;;8.10;5.90;;;;;;;15.49;46.92;99853.75;10296484;28;20082;-83
2022/05/02 21:28:16;;;;;;;8.88;5.60;;;;;;;15.18;47.39;99859.81;10292380;28;20129;-83
2022/05/02 21:33:52;;;;;;;11.63;5.30;;;;;;;15.09;47.62;99858.75;10298914;28;20070;-83
2022/05/02 21:38:58;;;;;;;8.32;5.38;;;;;;;15.00;48.25;99854.19;10300451;28;20061;-83
2022/05/02 21:44:00;;;;;;;8.90;5.53;;;;;;;14.95;48.25;99864.28;10303358;28;20050;-83
2022/05/02 21:49:03;;;;;;;8.60;5.70;;;;;;;14.92;48.62;99863.69;10302951;28;20110;-83
2022/05/02 21:54:05;;;;;;;10.75;5.30;;;;;;;14.86;48.48;99864.97;10301948;28;20518;-83
2022/05/02 21:59:06;;;;;;;7.85;5.43;;;;;;;14.77;48.97;99868.34;10301310;28;20500;-83
2022/05/02 22:04:08;;;;;;;7.72;5.47;;;;;;;14.65;49.38;99860.56;10303739;28;20093;-83
2022/05/02 22:09:11;;;;;;;7.75;5.85;;;;;;;14.56;49.49;99862.09;10299254;28;20584;-83
2022/05/02 22:14:13;;;;;;;7.93;5.70;;;;;;;14.40;49.90;99862.41;10301247;28;20062;-83
2022/05/02 22:19:15;;;;;;;8.43;5.68;;;;;;;14.22;50.50;99868.25;10300504;28;20054;-83
2022/05/02 22:24:32;;;;;;;8.38;5.97;;;;;;;14.00;51.24;99861.13;10298954;28;20469;-84
2022/05/02 22:29:33;;;;;;;10.70;6.15;;;;;;;13.89;51.17;99868.97;10301612;28;20069;-83
2022/05/02 22:34:35;;;;;;;8.93;5.90;;;;;;;13.77;51.33;99864.63;10298766;28;20519;-83
2022/05/02 22:39:37;;;;;;;12.43;5.97;;;;;;;13.51;51.71;99871.81;10295813;28;20078;-83
2022/05/02 22:44:39;;;;;;;7.85;5.63;;;;;;;13.32;52.64;99876.66;10301694;28;20050;-83
2022/05/02 22:49:41;;;;;;;13.13;6.80;;;;;;;13.13;53.10;99876.28;10297923;28;20087;-83
2022/05/02 22:54:43;;;;;;;10.55;6.45;;;;;;;12.91;53.75;99887.47;10299253;28;20492;-84
2022/05/02 22:59:49;;;;;;;8.02;6.40;;;;;;;12.82;54.15;99882.03;10314739;28;20141;-83
2022/05/02 23:04:57;;;;;;;12.05;6.70;;;;;;;12.76;54.74;99878.03;10298543;28;20074;-83
2022/05/02 23:10:06;;;;;;;10.07;6.47;;;;;;;12.74;54.45;99871.22;10299186;28;20096;-83
2022/05/02 23:15:09;;;;;;;10.65;7.25;;;;;;;12.52;54.66;99873.63;10315010;28;20093;-84
2022/05/02 23:20:11;;;;;;;9.88;6.85;;;;;;;12.45;55.19;99872.38;10297167;28;20873;-84
2022/05/02 23:25:35;;;;;;;15.25;7.65;;;;;;;12.09;56.03;99866.03;10303250;28;20125;-83
2022/05/02 23:30:48;;;;;;;10.18;6.78;;;;;;;12.16;56.17;99869.09;10292417;28;20950;-84
2022/05/02 23:36:06;;;;;;;8.13;6.82;;;;;;;12.10;56.62;99869.50;10296813;28;20567;-83
2022/05/02 23:41:09;;;;;;;9.30;7.40;;;;;;;12.02;56.34;99870.00;10300473;28;20146;-83
2022/05/02 23:46:29;;;;;;;9.68;6.88;;;;;;;11.96;56.77;99864.34;10298187;28;20140;-83
2022/05/02 23:52:10;;;;;;;8.63;7.20;;;;;;;11.94;56.88;99861.81;10299542;28;20137;-83
2022/05/02 23:57:28;;;;;;;11.38;7.50;;;;;;;11.91;56.70;99853.31;10299349;28;20109;-83
